Terminal Aerodrome Forecast
Issued by NWS

Home | Current Version | Previous Version | Text Only | Print | Product List | Glossary On
Versions: 1 2 3 4 5 6 7 8 9 10 11 12 13
000
FTUS45 KBOI 222320
TAFBKE
TAF
KBKE 222320Z 2300/2324 32015G25KT P6SM SKC
     FM230300 31007KT P6SM SKC
     FM231800 32012G20KT P6SM SKC=

USA.gov is the U.S. government's official web portal to all federal, state and local government web resources and services.